Close sub menu
NASDAQ
NY-Nasdaq Composite 25838,943 +512,82 +2,02% (23:16)
Stijgers 1 dag
Dalers 1 dag
Indices 1 dag
Advanced Micro Devices +18,6%
Lam Research Corp +7,7%
ASML Holding NV +7,1%
NVIDIA Corp +5,8%
PDD Holdings +5,7%
KLA Corp +4,8%
Microchip Technology +4,5%
Intel Corp +4,5%
Moderna +4,5%
Applied Materials +4,3%
Micron Technology Inc +4,1%
NXP Semiconductors NV +3,8%
Diamondback Energy -5,4%
Verisk Analytics -5,3%
Workday -4,8%
Atlassian Corp -3,8%
Zoom Communications Inc -3,6%
American Electric Power Company -3,3%
Cisco Systems -2,8%
Autodesk -2,5%
Exelon Corp -2,5%
Intuit -2,5%
CoStar Group -2,4%
GlobalFoundries -2,4%
AEX* 1.031,44+1,7%
Midkap* 1.064,37+1,8%
AMS Next 20®* 1.670,30+0,8%
FTSE100 10.438,66+2,1%
Dow Jones 49.910,59+1,2%
NASDAQ 25.838,943+2,0%
S&P500 7.365,12+1,5%
S&P Future 7.381,250,0%
BEL20** 5.555,15+2,1%
CAC 40** 8.299,42+2,9%
DAX 24.918,69+2,1%
* real time    ** slotkoers
NaamKoersVorige+/- %1 wk1 mndDit jaar 1 jaarTijd
Adobe 250,17 255,62 -2,1% +5,1% +5,2% -27,0% -32,9% 22:00
Advanced Micro Devices 421,47 355,26 +18,6% +9,9% +63,3% +65,9% +253,2% 22:00
Airbnb 139,82 139,73 +0,1% +0,5% +11,8% +2,9% +11,8% 22:00
Align Technology 174,00 168,71 +3,1% -4,8% -1,1% +8,1% -4,9% 22:00
Alphabet 395,07 384,27 +2,8% +10,6% +30,5% +22,5% +131,4% 22:00
Alphabet 397,82 388,43 +2,5% +11,1% +31,3% +24,1% +136,6% 22:00
Amazon.com 274,95 273,55 +0,5% +5,3% +30,4% +18,5% +46,8% 22:00
American Electric Power Company 132,53 137,04 -3,3% +1,1% +3,3% +18,8% +27,6% 22:00
Amgen 331,11 329,59 +0,5% -2,9% -5,3% +0,7% +17,7% 22:00
Analog Devices 415,66 404,77 +2,7% +5,6% +27,2% +49,3% +104,8% 22:00
Ansys 374,30 374,30 -- -- -4,7% +11,0% +15,2% 22:00
Apple 287,46 284,18 +1,2% +5,0% +11,1% +4,5% +42,9% 22:00
Applied Materials 428,50 410,82 +4,3% +7,8% +18,0% +59,9% +165,8% 22:00
ASML Holding NV 1.544,74 1.442,92 +7,1% +4,2% +9,5% +34,8% +111,1% 22:00
AstraZeneca PLC 194,94 194,94 0,0% -- +0,3% +112,1% +200,4% 00:00
Atlassian Corp 88,80 92,35 -3,8% +32,6% +35,4% -43,0% -55,5% 22:00
Autodesk 243,10 249,43 -2,5% +6,2% +4,8% -15,7% -10,9% 22:00
Automatic Data Processing 207,13 210,60 -1,6% +5,7% +3,2% -18,1% -30,7% 22:00
Baker Hughes Company 66,65 67,78 -1,6% +0,2% +12,3% +48,8% +84,4% 22:00
Biogen 190,67 189,13 +0,8% +3,1% +6,6% +7,5% +55,3% 22:00
Booking Holdings Inc. 168,31 167,63 +0,4% -3,3% -0,1% -21,8% -19,3% 22:00
Broadcom Inc. 425,44 427,36 -0,4% +6,9% +35,9% +23,5% +113,0% 22:00
Cadence Design Systems 354,90 353,63 +0,4% +8,7% +26,9% +13,1% +14,5% 22:00
Charter Communications 156,43 158,23 -1,1% -8,6% -28,0% -24,2% -59,9% 22:00
Cintas Corp 169,31 169,25 +0,1% -2,9% -2,9% -10,0% -20,1% 22:00
Cisco Systems 91,63 94,30 -2,8% +8,6% +19,3% +22,4% +59,0% 22:00
Cognizant Technology Solutions Corp 51,33 51,87 -1,0% -5,9% -17,0% -37,5% -33,4% 22:00
Comcast Corp 26,42 26,46 -0,1% -4,3% -5,3% -11,5% -23,2% 22:00
Constellation Energy Corp 322,74 320,42 +0,7% +4,8% +17,4% -9,3% +29,0% 22:00
Copart 33,36 33,15 +0,7% -0,6% -0,7% -15,3% -45,7% 22:00
CoStar Group 34,07 34,90 -2,4% -2,9% -12,6% -48,1% -54,7% 22:00
Costco Wholesale Corp 995,75 1.016,42 -2,0% +2,3% +0,2% +17,9% +0,2% 22:00
CrowdStrike Holdings 467,94 476,53 -1,8% +4,7% +19,4% +1,7% +7,5% 22:00
CSX Corp 45,58 45,03 +1,3% -0,4% +9,2% +24,2% +58,2% 22:00
Datadog 143,58 145,73 -1,4% +10,8% +21,1% +7,2% +37,9% 22:00
DexCom 60,34 59,48 +1,5% +0,3% -4,4% -10,4% -25,9% 22:00
Diamondback Energy 195,10 206,18 -5,4% +3,1% +6,3% +37,2% +54,9% 22:00
Dollar Tree 96,50 93,69 +3,0% -4,6% -13,6% -23,8% +11,6% 22:00
eBay 108,10 105,26 +2,7% +4,9% +11,8% +20,9% +49,7% 22:00
Electronic Arts 200,76 201,57 -0,4% -0,6% -1,1% -1,4% +30,2% 22:00
Enphase Energy 35,79 36,02 -0,6% +5,0% +3,1% +12,3% -18,9% 22:00
Exelon Corp 44,99 46,18 -2,5% -1,8% -6,4% +5,9% +0,4% 22:00
Fastenal Co 44,70 44,33 +0,9% -0,8% -4,3% +10,5% +7,6% 22:00
Fortinet 90,00 89,92 0,0% +4,9% +9,0% +13,2% -17,3% 22:00
Gilead Sciences 136,30 133,48 +2,1% +3,3% -4,5% +8,8% +29,8% 22:00
GlobalFoundries 72,30 74,04 -2,4% +24,3% +69,0% +111,7% +106,0% 22:00
Honeywell International 216,82 209,06 +3,7% -1,8% -8,9% +7,2% -2,4% 22:00
IDEXX Laboratories 579,23 562,97 +2,9% -0,9% -1,2% -16,8% +18,5% 22:00
Illumina 142,56 139,07 +2,5% +9,6% +9,2% +6,0% +77,9% 22:00
Intel Corp 113,01 108,15 +4,5% +28,0% +114,7% +193,2% +433,7% 22:00
Intuit 388,55 398,32 -2,5% -0,5% -5,7% -39,9% -37,0% 22:00
Intuitive Surgical 451,73 451,38 +0,1% -3,3% -0,2% -20,3% -15,1% 22:00
JD.com 30,70 29,68 +3,4% -0,1% +4,2% +3,4% -12,8% 22:00
Keurig Dr Pepper 28,56 28,92 -1,2% +0,5% +14,3% +3,2% -16,1% 22:00
KLA Corp 1.816,28 1.732,90 +4,8% -4,2% +14,3% +42,6% +150,0% 22:00
Kraft Heinz Company (The) 23,07 22,54 +2,4% +0,4% -1,0% -7,0% -21,1% 22:00
Lam Research Corp 297,17 275,80 +7,7% +9,8% +26,2% +61,1% +273,2% 22:00
Lucid Group Inc 6,21 6,25 -1,0% +6,5% -37,2% -40,9% -73,5% 22:00
lululemon athletica 132,03 130,21 +1,4% -8,6% -16,4% -37,3% -53,3% 22:00
Marriott International 359,06 354,52 +1,3% -1,1% +6,8% +14,3% +43,4% 22:00
Marvell Technology 172,15 168,75 +2,0% +10,1% +57,5% +98,6% +172,3% 22:00
MercadoLibre 1.841,14 1.817,31 +1,3% +1,4% +5,9% -9,8% -19,1% 22:00
Meta Platforms 612,88 604,96 +1,3% -9,9% +5,3% -8,3% +1,0% 22:00
Microchip Technology 102,97 98,48 +4,5% +16,9% +50,1% +54,6% +106,1% 22:00
Micron Technology Inc 666,80 640,20 +4,1% +27,0% +74,9% +124,4% +696,4% 22:00
Microsoft Corp 413,87 411,38 +0,6% -4,2% +10,1% -14,9% -5,7% 22:00
Moderna 48,75 46,71 +4,5% -0,9% -5,1% +58,4% +67,8% 22:00
Mondelez International 61,87 61,36 +0,8% +4,8% +6,6% +14,0% -9,5% 22:00
Monster Beverage Corp 77,20 75,80 +1,8% -1,8% +4,7% -1,1% +24,4% 22:00
Netflix Inc. 88,22 87,89 +0,4% -4,7% -10,9% -6,3% -22,5% 22:00
NVIDIA Corp 207,67 196,50 +5,8% -7,8% +10,8% +5,4% +72,6% 22:00
NXP Semiconductors NV 303,63 292,35 +3,8% +26,9% +50,3% +34,7% +58,1% 22:00
Old Dominion Freight Line 200,52 196,08 +2,3% -11,6% -1,0% +25,1% +25,5% 22:00
O'Reilly Automotive Inc 94,76 95,00 -0,2% +3,7% +3,9% +4,2% +2,7% 22:00
PACCAR 116,45 113,42 +2,7% -5,2% -4,1% +3,6% +26,8% 22:00
Palo Alto Networks Inc 183,59 183,98 -0,2% +1,7% +12,7% -0,1% -2,2% 22:00
Paychex 91,38 92,85 -1,6% +2,0% +1,3% -17,2% -37,9% 22:00
PayPal Holdings 46,26 46,49 -0,5% -6,4% +2,5% -20,4% -32,2% 22:00
PDD Holdings 102,25 96,75 +5,7% -0,6% -4,1% -14,7% -12,7% 22:00
Pepsico 155,91 155,04 +0,6% -0,8% -1,3% +8,0% +17,5% 22:00
QUALCOMM 192,66 186,55 +3,2% +24,4% +47,1% +9,1% +33,8% 22:00
Regeneron Pharmaceuticals 720,84 702,27 +2,7% -4,0% -7,8% -9,0% +16,4% 22:00
Rivian Automotive 14,49 14,60 -0,8% -9,5% -5,2% -25,9% +7,7% 22:00
Ross Stores 228,88 227,42 +0,7% +0,8% +3,4% +26,3% +60,8% 22:00
Seagen 228,89 228,74 -- -- +7,2% +78,1% +78,3% 22:00
SiriusXM Holdings Inc 26,68 26,40 +1,1% +0,5% +10,9% +32,0% +24,0% 22:00
Starbucks Corp 106,43 104,94 +1,4% +7,9% +16,1% +24,6% +28,5% 22:00
Synopsys 504,42 502,51 +0,4% +3,9% +27,1% +7,0% +5,3% 22:00
Tesla 398,53 389,37 +2,4% +3,5% +8,0% -13,4% +38,9% 22:00
Texas Instruments 289,44 281,00 +3,0% +6,0% +44,1% +61,9% +72,9% 22:00
T-Mobile US 193,12 194,31 -0,6% +4,1% -3,5% -4,3% -21,7% 22:00
Verisk Analytics 170,89 180,45 -5,3% +2,1% -2,5% -19,3% -38,8% 22:00
Vertex Pharmaceuticals 427,52 424,36 +0,8% -1,4% -3,3% -6,4% -15,2% 22:00
Walgreens Boots Alliance 11,98 11,98 -- -- +0,5% +28,4% +40,6% 22:00
Warner Bros Discovery 27,15 27,22 -0,1% +1,1% -0,3% -5,5% +225,5% 22:00
Workday 122,63 128,88 -4,8% +6,4% -2,6% -40,0% -48,1% 22:00
Xcel Energy 80,57 81,45 -1,1% +2,5% +0,9% +10,3% +14,9% 22:00
Zoom Communications Inc 105,10 109,10 -3,6% +19,7% +32,5% +26,4% +39,5% 22:00
Zscaler 138,83 141,36 -1,8% +3,9% +2,0% -37,2% -39,3% 22:00
Powered by

Schakel browser notificaties in

Schakel browser notificaties in om meldingen te ontvangen op dit apparaat.

Browser notificaties inschakelen

U heeft browser notificaties voor fd.nl eerder geweigerd. Ga naar browser instellingen en sta browser notificaties toe voor fd.nl. De precieze handelingen zijn afhankelijk van uw browser.

U volgt een onderwerp

Wanneer deze zoekterm in een artikel voorkomt, zult u deze terugvinden in Mijn nieuws onder ‘Eurobonds’.

Wilt u via de FD App meldingen ontvangen voor dit onderwerp?

Wilt u via de FD App meldingen ontvangen voor dit onderwerp?

Ons privacy statement is van toepassing.

Meldingen

Wanneer deze zoekterm in een artikel voorkomt, zult u deze terugvinden in Mijn nieuws onder ‘Eurobonds’.

Wilt u via de FD App meldingen ontvangen voor dit onderwerp?

Wilt u via de FD App meldingen ontvangen voor dit onderwerp?